createdAt,value
2023-04-21T00:00:13.373Z,1014.87
2023-04-21T00:01:13.346Z,1014.84
2023-04-21T00:02:13.295Z,1014.85
2023-04-21T00:03:13.417Z,1014.88
2023-04-21T00:04:14.139Z,1014.86
2023-04-21T00:05:13.452Z,1014.88
2023-04-21T00:06:13.481Z,1014.88
2023-04-21T00:07:13.465Z,1014.89
2023-04-21T00:08:13.543Z,1014.83
2023-04-21T00:09:13.518Z,1014.85
2023-04-21T00:10:13.341Z,1014.83
2023-04-21T00:11:13.374Z,1014.82
2023-04-21T00:12:13.258Z,1014.79
2023-04-21T00:13:13.147Z,1014.76
2023-04-21T00:14:13.161Z,1014.73
2023-04-21T00:15:13.013Z,1014.73
2023-04-21T00:16:13.020Z,1014.75
2023-04-21T00:17:12.934Z,1014.73
2023-04-21T00:18:12.824Z,1014.74
2023-04-21T00:19:13.845Z,1014.76
2023-04-21T00:20:13.860Z,1014.70
2023-04-21T00:21:14.167Z,1014.66
2023-04-21T00:22:13.053Z,1014.66
2023-04-21T00:23:13.932Z,1014.62
2023-04-21T00:24:12.899Z,1014.61
2023-04-21T00:25:12.899Z,1014.64
2023-04-21T00:26:12.714Z,1014.65
2023-04-21T00:27:18.653Z,1014.64
2023-04-21T00:28:13.469Z,1014.65
2023-04-21T00:29:13.385Z,1014.62
2023-04-21T00:30:13.518Z,1014.62
2023-04-21T00:31:13.753Z,1014.60
2023-04-21T00:32:14.044Z,1014.57
2023-04-21T00:33:12.863Z,1014.59
2023-04-21T00:34:14.159Z,1014.57
2023-04-21T00:35:13.430Z,1014.56
2023-04-21T00:36:13.482Z,1014.52
2023-04-21T00:37:13.789Z,1014.53
2023-04-21T00:38:13.853Z,1014.52
2023-04-21T00:39:14.314Z,1014.50
2023-04-21T00:40:14.436Z,1014.44
2023-04-21T00:41:13.403Z,1014.43
2023-04-21T00:42:13.937Z,1014.41
2023-04-21T00:43:12.743Z,1014.42
2023-04-21T00:44:13.646Z,1014.42
2023-04-21T00:45:13.627Z,1014.48
2023-04-21T00:46:13.810Z,1014.49
2023-04-21T00:47:13.901Z,1014.47
2023-04-21T00:48:13.241Z,1014.46
2023-04-21T00:49:13.254Z,1014.46
2023-04-21T00:50:13.148Z,1014.46
2023-04-21T00:51:13.052Z,1014.48
2023-04-21T00:52:18.062Z,1014.46
2023-04-21T00:53:12.962Z,1014.48
2023-04-21T00:54:13.295Z,1014.47
2023-04-21T00:55:13.616Z,1014.50
2023-04-21T00:56:13.944Z,1014.52
2023-04-21T00:57:13.055Z,1014.54
2023-04-21T00:58:12.943Z,1014.50
2023-04-21T00:59:12.869Z,1014.52
2023-04-21T01:00:13.805Z,1014.52
2023-04-21T01:01:13.834Z,1014.50
2023-04-21T01:02:13.028Z,1014.52
2023-04-21T01:03:13.543Z,1014.52
2023-04-21T01:04:14.207Z,1014.49
2023-04-21T01:05:13.396Z,1014.46
2023-04-21T01:06:18.479Z,1014.49
2023-04-21T01:07:15.088Z,1014.50
2023-04-21T01:08:13.291Z,1014.49
2023-04-21T01:09:13.720Z,1014.46
2023-04-21T01:10:13.556Z,1014.49
2023-04-21T01:11:13.686Z,1014.47
2023-04-21T01:12:13.617Z,1014.52
2023-04-21T01:13:13.605Z,1014.50
2023-04-21T01:14:13.560Z,1014.54
2023-04-21T01:15:13.652Z,1014.54
2023-04-21T01:16:14.110Z,1014.56
2023-04-21T01:17:13.023Z,1014.52
2023-04-21T01:18:13.050Z,1014.56
2023-04-21T01:19:13.108Z,1014.50
2023-04-21T01:20:13.030Z,1014.53
2023-04-21T01:21:13.342Z,1014.53
2023-04-21T01:22:13.438Z,1014.49
2023-04-21T01:23:13.640Z,1014.44
2023-04-21T01:24:14.389Z,1014.48
2023-04-21T01:25:13.472Z,1014.55
2023-04-21T01:26:13.596Z,1014.48
2023-04-21T01:27:13.500Z,1014.45
2023-04-21T01:28:13.458Z,1014.41
2023-04-21T01:29:13.538Z,1014.45
2023-04-21T01:30:13.791Z,1014.46
2023-04-21T01:31:13.694Z,1014.37
2023-04-21T01:32:13.682Z,1014.44
2023-04-21T01:33:13.850Z,1014.44
2023-04-21T01:34:14.085Z,1014.43
2023-04-21T01:35:12.994Z,1014.45
2023-04-21T01:36:13.410Z,1014.43
2023-04-21T01:37:13.724Z,1014.43
2023-04-21T01:38:13.791Z,1014.41
2023-04-21T01:39:13.714Z,1014.38
2023-04-21T01:40:13.780Z,1014.38
2023-04-21T01:41:13.828Z,1014.43
2023-04-21T01:42:13.924Z,1014.40
2023-04-21T01:43:13.203Z,1014.40
2023-04-21T01:44:13.340Z,1014.45
2023-04-21T01:45:13.362Z,1014.40
2023-04-21T01:46:13.720Z,1014.36
2023-04-21T01:47:13.681Z,1014.41
2023-04-21T01:48:13.662Z,1014.39
2023-04-21T01:49:13.514Z,1014.37
2023-04-21T01:50:13.526Z,1014.36
2023-04-21T01:51:13.446Z,1014.37
2023-04-21T01:52:13.455Z,1014.36
2023-04-21T01:53:13.351Z,1014.33
2023-04-21T01:54:13.295Z,1014.27
2023-04-21T01:55:13.671Z,1014.28
2023-04-21T01:56:13.707Z,1014.19
2023-04-21T01:57:14.073Z,1014.14
2023-04-21T01:58:12.960Z,1014.07
2023-04-21T01:59:12.908Z,1014.00
2023-04-21T02:00:13.082Z,1014.07
2023-04-21T02:01:13.172Z,1014.11
2023-04-21T02:02:13.515Z,1014.10
2023-04-21T02:03:13.557Z,1014.11
2023-04-21T02:04:14.230Z,1014.18
2023-04-21T02:05:13.306Z,1014.19
2023-04-21T02:06:13.476Z,1014.23
2023-04-21T02:07:13.584Z,1014.24
2023-04-21T02:08:13.559Z,1014.23
2023-04-21T02:09:13.852Z,1014.21
2023-04-21T02:10:13.765Z,1014.20
2023-04-21T02:11:13.735Z,1014.26
2023-04-21T02:12:13.832Z,1014.29
2023-04-21T02:13:13.864Z,1014.27
2023-04-21T02:14:13.898Z,1014.25
2023-04-21T02:15:12.825Z,1014.27
2023-04-21T02:16:14.503Z,1014.27
2023-04-21T02:17:13.965Z,1014.34
2023-04-21T02:18:12.896Z,1014.45
2023-04-21T02:19:13.002Z,1014.51
2023-04-21T02:20:12.913Z,1014.49
2023-04-21T02:21:13.005Z,1014.41
2023-04-21T02:22:13.798Z,1014.38
2023-04-21T02:23:14.023Z,1014.39
2023-04-21T02:24:13.030Z,1014.42
2023-04-21T02:25:13.174Z,1014.41
2023-04-21T02:26:13.235Z,1014.39
2023-04-21T02:27:13.111Z,1014.35
2023-04-21T02:28:13.301Z,1014.36
2023-04-21T02:29:13.145Z,1014.35
2023-04-21T02:30:12.982Z,1014.33
2023-04-21T02:31:13.072Z,1014.22
2023-04-21T02:33:13.134Z,1014.10
2023-04-21T02:34:13.188Z,1014.05
2023-04-21T02:35:13.217Z,1013.95
2023-04-21T02:36:13.114Z,1013.99
2023-04-21T02:37:13.335Z,1014.06
2023-04-21T02:38:13.279Z,1014.08
2023-04-21T02:39:13.181Z,1014.05
2023-04-21T02:40:13.391Z,1014.13
2023-04-21T02:41:13.725Z,1014.22
2023-04-21T02:42:13.584Z,1014.28
2023-04-21T02:43:13.632Z,1014.30
2023-04-21T02:44:13.516Z,1014.25
2023-04-21T02:45:13.746Z,1014.18
2023-04-21T02:46:13.568Z,1014.23
2023-04-21T02:47:13.569Z,1014.25
2023-04-21T02:48:13.398Z,1014.26
2023-04-21T02:49:13.262Z,1014.20
2023-04-21T02:50:13.291Z,1014.14
2023-04-21T02:51:13.428Z,1014.08
2023-04-21T02:52:13.502Z,1014.04
2023-04-21T02:53:13.811Z,1013.99
2023-04-21T02:54:13.666Z,1014.00
2023-04-21T02:55:13.810Z,1014.04
2023-04-21T02:56:13.731Z,1014.11
2023-04-21T02:57:13.588Z,1014.21
2023-04-21T02:58:13.488Z,1014.21
2023-04-21T02:59:13.371Z,1014.17
2023-04-21T03:00:13.345Z,1014.17
2023-04-21T03:01:13.322Z,1014.19
2023-04-21T03:02:13.302Z,1014.19
2023-04-21T03:03:13.377Z,1014.12
2023-04-21T03:04:13.441Z,1014.10
2023-04-21T03:05:13.523Z,1014.07
2023-04-21T03:06:14.784Z,1014.08
2023-04-21T03:07:13.910Z,1014.06
2023-04-21T03:08:12.784Z,1014.08
2023-04-21T03:09:13.850Z,1014.09
2023-04-21T03:10:14.160Z,1014.10
2023-04-21T03:11:13.112Z,1014.18
2023-04-21T03:12:13.037Z,1014.26
2023-04-21T03:13:13.179Z,1014.24
2023-04-21T03:14:13.048Z,1014.24
2023-04-21T03:15:13.166Z,1014.14
2023-04-21T03:16:13.526Z,1014.12
2023-04-21T03:17:13.680Z,1014.14
2023-04-21T03:18:13.744Z,1014.19
2023-04-21T03:19:13.899Z,1014.19
2023-04-21T03:20:12.920Z,1014.19
2023-04-21T03:21:12.724Z,1014.21
2023-04-21T03:22:13.781Z,1014.27
2023-04-21T03:23:13.709Z,1014.18
2023-04-21T03:24:13.620Z,1014.17
2023-04-21T03:25:13.805Z,1014.17
2023-04-21T03:26:13.762Z,1014.19
2023-04-21T03:27:14.119Z,1014.24
2023-04-21T03:28:13.420Z,1014.26
2023-04-21T03:29:13.372Z,1014.25
2023-04-21T03:30:13.374Z,1014.22
2023-04-21T03:31:13.206Z,1014.21
2023-04-21T03:32:13.430Z,1014.17
2023-04-21T03:33:13.772Z,1014.20
2023-04-21T03:34:13.905Z,1014.24
2023-04-21T03:35:17.820Z,1014.19
2023-04-21T03:36:13.877Z,1014.16
2023-04-21T03:37:12.737Z,1014.15
2023-04-21T03:38:13.786Z,1014.15
2023-04-21T03:39:20.191Z,1014.12
2023-04-21T03:40:13.553Z,1014.14
2023-04-21T03:41:13.560Z,1014.12
2023-04-21T03:42:13.741Z,1014.11
2023-04-21T03:43:14.118Z,1014.14
2023-04-21T03:44:13.161Z,1014.16
2023-04-21T03:45:13.081Z,1014.15
2023-04-21T03:46:13.324Z,1014.13
2023-04-21T03:47:13.526Z,1014.15
2023-04-21T03:48:14.545Z,1014.11
2023-04-21T03:49:13.959Z,1014.14
2023-04-21T03:50:13.033Z,1014.14
2023-04-21T03:51:13.165Z,1014.18
2023-04-21T03:52:13.072Z,1014.17
2023-04-21T03:53:12.974Z,1014.22
2023-04-21T03:54:12.976Z,1014.20
2023-04-21T03:55:12.988Z,1014.20
2023-04-21T03:56:13.720Z,1014.17
2023-04-21T03:57:13.857Z,1014.22
2023-04-21T03:58:13.779Z,1014.20
2023-04-21T03:59:13.624Z,1014.24
2023-04-21T04:00:13.760Z,1014.27
2023-04-21T04:01:13.959Z,1014.26
2023-04-21T04:02:13.094Z,1014.20
2023-04-21T04:03:13.378Z,1014.19
2023-04-21T04:04:13.701Z,1014.15
2023-04-21T04:05:14.372Z,1014.17
2023-04-21T04:06:13.430Z,1014.12
2023-04-21T04:07:13.395Z,1014.09
2023-04-21T04:08:13.583Z,1014.06
2023-04-21T04:09:13.634Z,1014.09
2023-04-21T04:10:13.569Z,1014.09
2023-04-21T04:11:13.831Z,1014.11
2023-04-21T04:12:13.841Z,1014.11
2023-04-21T04:13:13.939Z,1014.15
2023-04-21T04:14:13.663Z,1014.14
2023-04-21T04:15:13.560Z,1014.10
2023-04-21T04:16:13.636Z,1014.11
2023-04-21T04:17:14.030Z,1014.08
2023-04-21T04:18:12.870Z,1014.09
2023-04-21T04:19:13.777Z,1014.06
2023-04-21T04:20:13.738Z,1014.06
2023-04-21T04:21:13.798Z,1014.06
2023-04-21T04:22:13.909Z,1014.03
2023-04-21T04:23:12.962Z,1013.99
2023-04-21T04:24:12.894Z,1013.98
2023-04-21T04:25:13.145Z,1013.98
2023-04-21T04:26:13.133Z,1013.97
2023-04-21T04:27:13.166Z,1013.97
2023-04-21T04:28:13.081Z,1014.06
2023-04-21T04:29:13.221Z,1014.14
2023-04-21T04:30:13.167Z,1014.16
2023-04-21T04:31:13.271Z,1014.18
2023-04-21T04:32:13.674Z,1014.12
2023-04-21T04:33:13.963Z,1014.10
2023-04-21T04:34:12.903Z,1014.07
2023-04-21T04:35:12.957Z,1014.03
2023-04-21T04:36:13.023Z,1014.04
2023-04-21T04:37:13.347Z,1014.06
2023-04-21T04:38:13.659Z,1014.12
2023-04-21T04:39:13.838Z,1014.12
2023-04-21T04:40:13.856Z,1014.10
2023-04-21T04:41:13.860Z,1014.09
2023-04-21T04:42:12.818Z,1014.11
2023-04-21T04:43:13.720Z,1014.13
2023-04-21T04:44:13.630Z,1014.15
2023-04-21T04:45:13.491Z,1014.20
2023-04-21T04:46:13.540Z,1014.11
2023-04-21T04:47:13.933Z,1014.13
2023-04-21T04:48:12.863Z,1014.14
2023-04-21T04:49:13.778Z,1014.16
2023-04-21T04:50:13.985Z,1014.12
2023-04-21T04:51:12.936Z,1014.11
2023-04-21T04:52:13.038Z,1014.08
2023-04-21T04:53:12.864Z,1014.14
2023-04-21T04:54:13.708Z,1014.14
2023-04-21T04:55:13.740Z,1014.10
2023-04-21T04:56:13.956Z,1014.11
2023-04-21T04:57:12.909Z,1014.13
2023-04-21T04:58:12.758Z,1014.14
2023-04-21T04:59:13.691Z,1014.10
2023-04-21T05:00:13.553Z,1014.12
2023-04-21T05:01:13.446Z,1014.15
2023-04-21T05:02:13.553Z,1014.13
2023-04-21T05:03:14.146Z,1014.17
2023-04-21T05:04:13.513Z,1014.19
2023-04-21T05:05:13.844Z,1014.18
2023-04-21T05:06:12.905Z,1014.18
2023-04-21T05:07:13.016Z,1014.17
2023-04-21T05:08:13.738Z,1014.15
2023-04-21T05:09:13.465Z,1014.17
2023-04-21T05:10:13.628Z,1014.16
2023-04-21T05:11:13.806Z,1014.16
2023-04-21T05:12:14.439Z,1014.17
2023-04-21T05:13:13.596Z,1014.17
2023-04-21T05:14:13.526Z,1014.16
2023-04-21T05:15:13.558Z,1014.14
2023-04-21T05:16:13.650Z,1014.16
2023-04-21T05:17:13.539Z,1014.12
2023-04-21T05:18:13.494Z,1014.13
2023-04-21T05:19:13.505Z,1014.11
2023-04-21T05:20:13.466Z,1014.06
2023-04-21T05:21:13.345Z,1014.06
2023-04-21T05:22:13.755Z,1014.06
2023-04-21T05:23:13.755Z,1014.06
2023-04-21T05:24:13.795Z,1014.07
2023-04-21T05:26:27.558Z,1014.04
2023-04-21T05:27:13.716Z,1014.03
2023-04-21T05:28:13.713Z,1014.08
2023-04-21T05:29:13.710Z,1014.11
2023-04-21T05:30:18.711Z,1014.12
2023-04-21T05:31:13.968Z,1014.15
2023-04-21T05:32:13.154Z,1014.09
2023-04-21T05:33:13.220Z,1014.09
2023-04-21T05:34:13.545Z,1014.15
2023-04-21T05:35:13.704Z,1014.12
2023-04-21T05:36:13.856Z,1014.15
2023-04-21T05:37:13.827Z,1014.18
2023-04-21T05:38:13.913Z,1014.17
2023-04-21T05:39:14.256Z,1014.22
2023-04-21T05:40:13.497Z,1014.16
2023-04-21T05:41:13.339Z,1014.15
2023-04-21T05:42:13.359Z,1014.19
2023-04-21T05:43:13.269Z,1014.21
2023-04-21T05:44:13.473Z,1014.21
2023-04-21T05:45:13.351Z,1014.26
2023-04-21T05:46:13.225Z,1014.27
2023-04-21T05:47:13.293Z,1014.28
2023-04-21T05:48:13.760Z,1014.32
2023-04-21T05:49:12.861Z,1014.32
2023-04-21T05:50:13.785Z,1014.30
2023-04-21T05:51:13.961Z,1014.31
2023-04-21T05:52:13.384Z,1014.33
2023-04-21T05:53:13.549Z,1014.37
2023-04-21T05:54:13.607Z,1014.38
2023-04-21T05:55:13.825Z,1014.41
2023-04-21T05:56:13.793Z,1014.38
2023-04-21T05:57:13.720Z,1014.35
2023-04-21T05:58:13.892Z,1014.36
2023-04-21T05:59:12.835Z,1014.37
2023-04-21T06:00:14.102Z,1014.39
2023-04-21T06:01:13.084Z,1014.38
2023-04-21T06:02:13.348Z,1014.35
2023-04-21T06:03:13.628Z,1014.33
2023-04-21T06:04:14.020Z,1014.24
2023-04-21T06:05:13.946Z,1014.27
2023-04-21T06:06:12.906Z,1014.22
2023-04-21T06:07:12.823Z,1014.18
2023-04-21T06:08:13.842Z,1014.15
2023-04-21T06:09:13.727Z,1014.16
2023-04-21T06:10:13.658Z,1014.16
2023-04-21T06:11:13.684Z,1014.15
2023-04-21T06:12:13.471Z,1014.16
2023-04-21T06:13:13.391Z,1014.15
2023-04-21T06:14:13.369Z,1014.16
2023-04-21T06:15:13.282Z,1014.17
2023-04-21T06:16:13.415Z,1014.19
2023-04-21T06:17:13.622Z,1014.20
2023-04-21T06:18:13.607Z,1014.17
2023-04-21T06:19:13.793Z,1014.21
2023-04-21T06:20:13.693Z,1014.18
2023-04-21T06:21:13.575Z,1014.19
2023-04-21T06:22:13.507Z,1014.17
2023-04-21T06:23:13.512Z,1014.15
2023-04-21T06:24:13.890Z,1014.11
2023-04-21T06:25:12.758Z,1014.11
2023-04-21T06:26:13.668Z,1014.09
2023-04-21T06:27:13.569Z,1014.15
2023-04-21T06:28:13.463Z,1014.10
2023-04-21T06:29:13.609Z,1014.10
2023-04-21T06:30:13.590Z,1014.12
2023-04-21T06:31:13.500Z,1014.11
2023-04-21T06:32:13.722Z,1014.11
2023-04-21T06:33:13.838Z,1014.13
2023-04-21T06:34:13.971Z,1014.08
2023-04-21T06:35:12.849Z,1014.14
2023-04-21T06:36:14.739Z,1014.09
2023-04-21T06:37:13.712Z,1014.09
2023-04-21T06:38:13.732Z,1014.09
2023-04-21T06:39:13.944Z,1014.15
2023-04-21T06:40:13.344Z,1014.11
2023-04-21T06:41:13.224Z,1014.12
2023-04-21T06:42:13.329Z,1014.16
2023-04-21T06:43:13.301Z,1014.14
2023-04-21T06:44:13.406Z,1014.17
2023-04-21T06:45:13.556Z,1014.17
2023-04-21T06:46:13.542Z,1014.13
2023-04-21T06:47:15.291Z,1014.19
2023-04-21T06:48:13.480Z,1014.19
2023-04-21T06:49:13.668Z,1014.16
2023-04-21T06:50:13.929Z,1014.16
2023-04-21T06:51:13.270Z,1014.14
2023-04-21T06:52:13.356Z,1014.14
2023-04-21T06:53:13.404Z,1014.20
2023-04-21T06:54:13.628Z,1014.21
2023-04-21T06:55:13.673Z,1014.19
2023-04-21T06:56:13.763Z,1014.20
2023-04-21T06:57:13.817Z,1014.22
2023-04-21T06:58:14.198Z,1014.18
2023-04-21T06:59:13.128Z,1014.24
2023-04-21T07:00:13.274Z,1014.25
2023-04-21T07:01:13.726Z,1014.24
2023-04-21T07:02:14.078Z,1014.29
2023-04-21T07:03:13.119Z,1014.28
2023-04-21T07:04:14.690Z,1014.23
2023-04-21T07:05:14.079Z,1014.23
2023-04-21T07:06:12.979Z,1014.21
2023-04-21T07:07:13.145Z,1014.24
2023-04-21T07:08:13.136Z,1014.22
2023-04-21T07:09:13.280Z,1014.19
2023-04-21T07:10:13.354Z,1014.21
2023-04-21T07:11:13.270Z,1014.21
2023-04-21T07:12:13.140Z,1014.16
2023-04-21T07:13:13.083Z,1014.13
2023-04-21T07:14:13.118Z,1014.11
2023-04-21T07:15:13.004Z,1014.11
2023-04-21T07:16:13.019Z,1014.11
2023-04-21T07:17:13.045Z,1014.11
2023-04-21T07:18:13.365Z,1014.14
2023-04-21T07:19:14.720Z,1014.16
2023-04-21T07:20:14.108Z,1014.11
2023-04-21T07:21:13.171Z,1014.06
2023-04-21T07:22:13.193Z,1014.03
2023-04-21T07:23:13.317Z,1014.09
2023-04-21T07:24:13.197Z,1014.05
2023-04-21T07:25:13.245Z,1014.06
2023-04-21T07:26:13.225Z,1014.02
2023-04-21T07:27:13.302Z,1014.03
2023-04-21T07:28:15.116Z,1014.02
2023-04-21T07:29:13.527Z,1014.08
2023-04-21T07:30:13.592Z,1014.09
2023-04-21T07:31:13.542Z,1014.07
2023-04-21T07:32:13.489Z,1014.08
2023-04-21T07:33:13.570Z,1014.12
2023-04-21T07:34:13.557Z,1014.11
2023-04-21T07:35:23.075Z,1014.09
2023-04-21T07:36:13.000Z,1014.12
2023-04-21T07:37:12.957Z,1014.11
2023-04-21T07:38:13.611Z,1014.09
2023-04-21T07:39:14.963Z,1014.09
2023-04-21T07:40:13.020Z,1014.14
2023-04-21T07:41:13.162Z,1014.11
2023-04-21T07:42:13.181Z,1014.09
2023-04-21T07:43:13.668Z,1014.10
2023-04-21T07:44:13.598Z,1014.08
2023-04-21T07:45:13.596Z,1014.13
2023-04-21T07:46:13.927Z,1014.12
2023-04-21T07:47:13.054Z,1014.08
2023-04-21T07:48:13.476Z,1014.07
2023-04-21T07:49:13.574Z,1014.06
2023-04-21T07:50:13.622Z,1014.09
2023-04-21T07:51:14.131Z,1014.06
2023-04-21T07:52:13.007Z,1014.04
2023-04-21T07:53:12.901Z,1014.04
2023-04-21T07:54:17.936Z,1014.06
2023-04-21T07:55:12.929Z,1014.10
2023-04-21T07:56:12.927Z,1014.10
2023-04-21T07:57:12.938Z,1014.11
2023-04-21T07:58:13.227Z,1014.06
2023-04-21T07:59:15.088Z,1014.07
2023-04-21T08:00:13.329Z,1014.02
2023-04-21T08:01:13.310Z,1014.02
2023-04-21T08:02:13.540Z,1014.01
2023-04-21T08:03:13.976Z,1014.02
2023-04-21T08:04:19.318Z,1014.00
2023-04-21T08:05:13.624Z,1013.98
2023-04-21T08:06:14.180Z,1014.02
2023-04-21T08:07:13.943Z,1014.00
2023-04-21T08:08:14.533Z,1013.99
2023-04-21T08:09:13.446Z,1014.00
2023-04-21T08:10:13.629Z,1013.99
2023-04-21T08:11:13.573Z,1014.02
2023-04-21T08:12:13.922Z,1014.02
2023-04-21T08:13:13.122Z,1014.03
2023-04-21T08:14:13.074Z,1014.04
2023-04-21T08:15:12.987Z,1014.04
2023-04-21T08:16:12.880Z,1014.04
2023-04-21T08:17:12.783Z,1014.06
2023-04-21T08:18:13.799Z,1014.03
2023-04-21T08:19:19.155Z,1014.02
2023-04-21T08:20:13.694Z,1014.04
2023-04-21T08:21:13.964Z,1014.04
2023-04-21T08:22:13.254Z,1014.03
2023-04-21T08:23:13.402Z,1014.02
2023-04-21T08:24:13.693Z,1014.02
2023-04-21T08:25:13.126Z,1014.02
2023-04-21T08:26:13.013Z,1014.03
2023-04-21T08:27:12.950Z,1014.05
2023-04-21T08:28:13.624Z,1014.04
2023-04-21T08:29:13.762Z,1014.05
2023-04-21T08:30:13.835Z,1014.06
2023-04-21T08:31:13.866Z,1014.08
2023-04-21T08:32:13.947Z,1014.06
2023-04-21T08:33:12.956Z,1014.12
2023-04-21T08:34:12.930Z,1014.10
2023-04-21T08:35:13.962Z,1014.15
2023-04-21T08:36:26.155Z,1014.19
2023-04-21T08:37:13.397Z,1014.15
2023-04-21T08:38:13.351Z,1014.19
2023-04-21T08:39:13.649Z,1014.14
2023-04-21T08:40:13.463Z,1014.16
2023-04-21T08:41:13.364Z,1014.19
2023-04-21T08:42:13.345Z,1014.14
2023-04-21T08:43:13.228Z,1014.14
2023-04-21T08:44:13.040Z,1014.15
2023-04-21T08:45:13.381Z,1014.15
2023-04-21T08:46:13.429Z,1014.17
2023-04-21T08:47:13.593Z,1014.19
2023-04-21T08:48:13.817Z,1014.17
2023-04-21T08:49:19.052Z,1014.15
2023-04-21T08:50:13.445Z,1014.19
2023-04-21T08:51:14.581Z,1014.18
2023-04-21T08:52:13.492Z,1014.19
2023-04-21T08:53:13.464Z,1014.18
2023-04-21T08:54:13.378Z,1014.19
2023-04-21T08:55:13.601Z,1014.23
2023-04-21T08:56:13.697Z,1014.26
2023-04-21T08:57:15.814Z,1014.26
2023-04-21T08:58:13.570Z,1014.27
2023-04-21T08:59:13.644Z,1014.24
2023-04-21T09:00:13.491Z,1014.24
2023-04-21T09:01:13.707Z,1014.26
2023-04-21T09:02:14.034Z,1014.25
2023-04-21T09:03:23.149Z,1014.20
2023-04-21T09:04:13.966Z,1014.22
2023-04-21T09:05:18.314Z,1014.22
2023-04-21T09:06:14.575Z,1014.18
2023-04-21T09:07:13.943Z,1014.15
2023-04-21T09:08:13.118Z,1014.19
2023-04-21T09:09:13.024Z,1014.18
2023-04-21T09:10:12.901Z,1014.15
2023-04-21T09:11:12.965Z,1014.15
2023-04-21T09:12:12.839Z,1014.13
2023-04-21T09:13:13.867Z,1014.12
2023-04-21T09:14:13.815Z,1014.14
2023-04-21T09:15:13.705Z,1014.16
2023-04-21T09:16:13.891Z,1014.15
2023-04-21T09:17:12.862Z,1014.17
2023-04-21T09:18:14.067Z,1014.16
2023-04-21T09:19:13.399Z,1014.13
2023-04-21T09:20:13.258Z,1014.12
2023-04-21T09:21:13.093Z,1014.12
2023-04-21T09:22:13.059Z,1014.10
2023-04-21T09:23:12.886Z,1014.11
2023-04-21T09:24:12.758Z,1014.07
2023-04-21T09:25:13.758Z,1014.07
2023-04-21T09:26:13.578Z,1014.09
2023-04-21T09:27:13.579Z,1014.08
2023-04-21T09:28:13.355Z,1014.08
2023-04-21T09:29:13.494Z,1014.10
2023-04-21T09:30:13.437Z,1014.13
2023-04-21T09:31:13.593Z,1014.13
2023-04-21T09:32:13.656Z,1014.17
2023-04-21T09:33:24.388Z,1014.14
2023-04-21T09:34:14.101Z,1014.14
2023-04-21T09:35:13.086Z,1014.13
2023-04-21T09:36:13.071Z,1014.13
2023-04-21T09:37:13.874Z,1014.14
2023-04-21T09:38:13.391Z,1014.15
2023-04-21T09:39:34.313Z,1014.17
2023-04-21T09:40:13.410Z,1014.17
2023-04-21T09:41:13.363Z,1014.15
2023-04-21T09:42:13.695Z,1014.17
2023-04-21T09:43:13.660Z,1014.16
2023-04-21T09:44:13.809Z,1014.15
2023-04-21T09:45:28.857Z,1014.15
2023-04-21T09:46:13.933Z,1014.10
2023-04-21T09:47:13.147Z,1014.09
2023-04-21T09:48:13.725Z,1014.02
2023-04-21T09:49:13.588Z,1014.06
2023-04-21T09:50:13.716Z,1014.01
2023-04-21T09:51:28.733Z,1014.01
2023-04-21T09:52:19.173Z,1014.07
2023-04-21T09:53:13.745Z,1014.03
2023-04-21T09:54:28.437Z,1014.05
2023-04-21T09:55:12.977Z,1014.06
2023-04-21T09:56:13.004Z,1014.03
2023-04-21T09:57:12.932Z,1014.01
2023-04-21T09:58:12.902Z,1014.03
2023-04-21T09:59:13.158Z,1013.98
2023-04-21T10:00:13.357Z,1014.02
2023-04-21T10:01:13.493Z,1013.99
2023-04-21T10:02:13.905Z,1013.98
2023-04-21T10:03:13.123Z,1014.00
2023-04-21T10:04:13.823Z,1014.00
2023-04-21T10:05:13.131Z,1013.98
2023-04-21T10:06:13.270Z,1013.99
2023-04-21T10:07:13.314Z,1013.97
2023-04-21T10:08:13.470Z,1013.92
2023-04-21T10:09:13.397Z,1013.91
2023-04-21T10:10:13.426Z,1013.91
2023-04-21T10:11:13.358Z,1013.91
2023-04-21T10:12:13.700Z,1013.90
2023-04-21T10:13:13.963Z,1013.88
2023-04-21T10:14:12.856Z,1013.82
2023-04-21T10:15:13.805Z,1013.77
2023-04-21T10:16:13.814Z,1013.76
2023-04-21T10:17:14.234Z,1013.71
2023-04-21T10:18:14.611Z,1013.69
2023-04-21T10:19:13.882Z,1013.74
2023-04-21T10:20:14.142Z,1013.74
2023-04-21T10:21:13.264Z,1013.75
2023-04-21T10:22:13.451Z,1013.76
2023-04-21T10:23:13.339Z,1013.76
2023-04-21T10:24:13.518Z,1013.81
2023-04-21T10:25:13.653Z,1013.76
2023-04-21T10:26:13.688Z,1013.81
2023-04-21T10:27:13.726Z,1013.82
2023-04-21T10:28:13.935Z,1013.78
2023-04-21T10:29:12.843Z,1013.77
2023-04-21T10:30:14.027Z,1013.78
2023-04-21T10:31:13.081Z,1013.82
2023-04-21T10:32:13.573Z,1013.82
2023-04-21T10:33:13.776Z,1013.84
2023-04-21T10:34:14.044Z,1013.87
2023-04-21T10:35:13.018Z,1013.87
2023-04-21T10:36:12.899Z,1013.86
2023-04-21T10:37:12.934Z,1013.89
2023-04-21T10:38:13.401Z,1013.85
2023-04-21T10:39:13.415Z,1013.86
2023-04-21T10:40:13.539Z,1013.87
2023-04-21T10:42:46.047Z,1013.89
2023-04-21T10:43:12.989Z,1013.90
2023-04-21T10:44:13.531Z,1013.90
2023-04-21T10:45:13.508Z,1013.86
2023-04-21T10:46:13.432Z,1013.77
2023-04-21T10:47:13.596Z,1013.78
2023-04-21T10:48:13.845Z,1013.75
2023-04-21T10:49:13.225Z,1013.78
2023-04-21T10:50:13.182Z,1013.72
2023-04-21T10:51:13.231Z,1013.71
2023-04-21T10:52:13.300Z,1013.71
2023-04-21T10:53:13.257Z,1013.66
2023-04-21T10:54:13.362Z,1013.62
2023-04-21T10:55:13.628Z,1013.65
2023-04-21T10:56:13.494Z,1013.62
2023-04-21T10:57:13.669Z,1013.65
2023-04-21T10:58:13.998Z,1013.63
2023-04-21T10:59:12.934Z,1013.66
2023-04-21T11:00:13.016Z,1013.61
2023-04-21T11:01:13.050Z,1013.64
2023-04-21T11:02:13.421Z,1013.65
2023-04-21T11:03:13.888Z,1013.65
2023-04-21T11:04:13.592Z,1013.64
2023-04-21T11:05:14.192Z,1013.63
2023-04-21T11:06:13.092Z,1013.63
2023-04-21T11:07:13.064Z,1013.60
2023-04-21T11:08:13.172Z,1013.58
2023-04-21T11:09:14.257Z,1013.56
2023-04-21T11:10:13.255Z,1013.57
2023-04-21T11:11:13.469Z,1013.59
2023-04-21T11:12:13.362Z,1013.61
2023-04-21T11:13:13.333Z,1013.59
2023-04-21T11:14:13.693Z,1013.62
2023-04-21T11:15:13.703Z,1013.62
2023-04-21T11:16:13.756Z,1013.65
2023-04-21T11:17:13.859Z,1013.62
2023-04-21T11:18:12.845Z,1013.59
2023-04-21T11:19:13.857Z,1013.59
2023-04-21T11:20:13.954Z,1013.57
2023-04-21T11:21:13.057Z,1013.55
2023-04-21T11:22:13.068Z,1013.56
2023-04-21T11:23:13.038Z,1013.51
2023-04-21T11:24:12.988Z,1013.51
2023-04-21T11:25:13.221Z,1013.45
2023-04-21T11:26:13.106Z,1013.39
2023-04-21T11:27:12.997Z,1013.38
2023-04-21T11:28:13.218Z,1013.35
2023-04-21T11:29:13.659Z,1013.34
2023-04-21T11:30:14.009Z,1013.33
2023-04-21T11:31:13.064Z,1013.28
2023-04-21T11:32:13.033Z,1013.26
2023-04-21T11:33:13.023Z,1013.24
2023-04-21T11:34:13.367Z,1013.19
2023-04-21T11:35:13.417Z,1013.16
2023-04-21T11:36:13.884Z,1013.17
2023-04-21T11:37:13.097Z,1013.15
2023-04-21T11:38:13.276Z,1013.16
2023-04-21T11:39:13.386Z,1013.19
2023-04-21T11:40:13.351Z,1013.15
2023-04-21T11:41:13.595Z,1013.18
2023-04-21T11:42:13.937Z,1013.15
2023-04-21T11:43:13.086Z,1013.09
2023-04-21T11:44:12.995Z,1013.11
2023-04-21T11:45:12.950Z,1013.11
2023-04-21T11:46:13.002Z,1013.11
2023-04-21T11:47:12.963Z,1013.08
2023-04-21T11:48:14.061Z,1013.05
2023-04-21T11:49:12.964Z,1013.05
2023-04-21T11:50:13.108Z,1013.04
2023-04-21T11:51:13.163Z,1013.04
2023-04-21T11:52:13.513Z,1013.02
2023-04-21T11:53:13.435Z,1013.04
2023-04-21T11:54:13.516Z,1013.06
2023-04-21T11:55:13.537Z,1012.98
2023-04-21T11:56:13.798Z,1012.98
2023-04-21T11:57:13.954Z,1012.97
2023-04-21T11:58:12.756Z,1012.95
2023-04-21T11:59:13.697Z,1012.92
2023-04-21T12:00:13.809Z,1012.86
2023-04-21T12:01:13.761Z,1012.85
2023-04-21T12:02:13.832Z,1012.85
2023-04-21T12:03:13.033Z,1012.86
2023-04-21T12:04:14.325Z,1012.91
2023-04-21T12:05:13.345Z,1012.90
2023-04-21T12:06:13.383Z,1012.90
2023-04-21T12:07:13.523Z,1012.89
2023-04-21T12:08:13.593Z,1012.85